PWSweather.com
Personal Weather Stations
Station Observations
MENWDWX1
Menstrie, ScotlandGB

MenstrieScotlandGB

Lat: 56.148322, Lon: -3.85483

Elevation: 62

Station Type: Davis Vantage Pro 2

High Low Average
Temperature 54.5°F12.5°C 47.7°F8.7°C 50.1°F10.1°C
Dew Point 48.1°F8.9°C 41.2°F5.1°C 43.6°F6.4°C
Winds 13.8 mph 22.2 kmh Calm Calm 8.0 mph SW12.9 kmh SW
Wind Gusts 26.5 mph42.6 kmh 1.2 mph1.9 kmh 12.0 mph19.3 kmh
Humidity 81% 76% 78%
Pressure 30.15 in1021.0 mb 29.32 in992.9 mb -
Precipitation 0.11 in2.8 mm - -
Hour Temp Dew Point Humidity Winds Wind Gusts Pressure Precip Precip Rate Daily Precip Total
12:00 AM 48.6°F9.2°C 41.7°F5.4°C 77% 8.1 mph SW13.0 kmh SW 12.7 mph20.4 kmh 30.15 in1021.0 mb - 0.00 in0.0 mm 0.00 in0.0 mm
12:05 AM 48.6°F9.2°C 41.7°F5.4°C 77% 6.9 mph WSW11.1 kmh WSW 11.5 mph18.5 kmh 30.15 in1021.0 mb - 0.00 in0.0 mm 0.00 in0.0 mm
12:10 AM 48.6°F9.2°C 41.7°F5.4°C 77% 4.6 mph SW7.4 kmh SW 4.6 mph7.4 kmh 30.14 in1020.7 mb - 0.00 in0.0 mm 0.00 in0.0 mm
12:15 AM 48.6°F9.2°C 41.7°F5.4°C 77% 8.1 mph WSW13.0 kmh WSW 11.5 mph18.5 kmh 30.14 in1020.7 mb - 0.00 in0.0 mm 0.00 in0.0 mm
12:20 AM 48.6°F9.2°C 41.7°F5.4°C 77% 6.9 mph WSW11.1 kmh WSW 15.0 mph24.1 kmh 30.14 in1020.7 mb - 0.00 in0.0 mm 0.00 in0.0 mm
12:25 AM 48.7°F9.3°C 41.8°F5.4°C 77% 12.7 mph WSW20.4 kmh WSW 18.4 mph29.6 kmh 30.14 in1020.7 mb - 0.00 in0.0 mm 0.00 in0.0 mm
12:30 AM 48.7°F9.3°C 41.8°F5.4°C 77% 8.1 mph SW13.0 kmh SW 16.1 mph25.9 kmh 30.14 in1020.7 mb - 0.00 in0.0 mm 0.00 in0.0 mm
12:35 AM 48.7°F9.3°C 41.8°F5.4°C 77% 9.2 mph WSW14.8 kmh WSW 13.8 mph22.2 kmh 30.14 in1020.7 mb - 0.00 in0.0 mm 0.00 in0.0 mm
12:40 AM 48.6°F9.2°C 41.7°F5.4°C 77% 10.4 mph SW16.7 kmh SW 13.8 mph22.2 kmh 30.13 in1020.3 mb - 0.00 in0.0 mm 0.00 in0.0 mm
12:45 AM 48.6°F9.2°C 41.7°F5.4°C 77% 8.1 mph WSW13.0 kmh WSW 12.7 mph20.4 kmh 30.13 in1020.3 mb - 0.00 in0.0 mm 0.00 in0.0 mm
12:50 AM 48.6°F9.2°C 41.7°F5.4°C 77% 10.4 mph SW16.7 kmh SW 11.5 mph18.5 kmh 30.13 in1020.3 mb - 0.00 in0.0 mm 0.00 in0.0 mm
12:55 AM 48.6°F9.2°C 41.7°F5.4°C 77% 9.2 mph WSW14.8 kmh WSW 16.1 mph25.9 kmh 30.13 in1020.3 mb - 0.00 in0.0 mm 0.00 in0.0 mm
01:00 AM 48.6°F9.2°C 41.7°F5.4°C 77% 10.4 mph WSW16.7 kmh WSW 15.0 mph24.1 kmh 30.13 in1020.3 mb - 0.00 in0.0 mm 0.00 in0.0 mm
01:05 AM 48.7°F9.3°C 41.8°F5.4°C 77% 11.5 mph WSW18.5 kmh WSW 15.0 mph24.1 kmh 30.13 in1020.3 mb - 0.00 in0.0 mm 0.00 in0.0 mm
01:10 AM 48.7°F9.3°C 41.8°F5.4°C 77% 6.9 mph WSW11.1 kmh WSW 10.4 mph16.7 kmh 30.13 in1020.3 mb - 0.00 in0.0 mm 0.00 in0.0 mm
01:15 AM 48.7°F9.3°C 41.8°F5.4°C 77% 8.1 mph WSW13.0 kmh WSW 11.5 mph18.5 kmh 30.13 in1020.3 mb - 0.00 in0.0 mm 0.00 in0.0 mm
01:20 AM 48.7°F9.3°C 41.8°F5.4°C 77% 8.1 mph SW13.0 kmh SW 12.7 mph20.4 kmh 30.12 in1020.0 mb - 0.00 in0.0 mm 0.00 in0.0 mm
01:25 AM 48.6°F9.2°C 41.7°F5.4°C 77% 9.2 mph SW14.8 kmh SW 13.8 mph22.2 kmh 30.12 in1020.0 mb - 0.00 in0.0 mm 0.00 in0.0 mm
01:30 AM 48.6°F9.2°C 41.7°F5.4°C 77% 9.2 mph SW14.8 kmh SW 11.5 mph18.5 kmh 30.12 in1020.0 mb - 0.00 in0.0 mm 0.00 in0.0 mm
01:35 AM 48.6°F9.2°C 41.7°F5.4°C 77% 8.1 mph SW13.0 kmh SW 11.5 mph18.5 kmh 30.12 in1020.0 mb - 0.00 in0.0 mm 0.00 in0.0 mm
01:40 AM 48.5°F9.2°C 41.6°F5.3°C 77% 11.5 mph SW18.5 kmh SW 15.0 mph24.1 kmh 30.12 in1020.0 mb - 0.00 in0.0 mm 0.00 in0.0 mm
01:45 AM 48.5°F9.2°C 41.6°F5.3°C 77% 8.1 mph SW13.0 kmh SW 11.5 mph18.5 kmh 30.12 in1020.0 mb - 0.00 in0.0 mm 0.00 in0.0 mm
01:50 AM 48.6°F9.2°C 41.7°F5.4°C 77% 12.7 mph SW20.4 kmh SW 16.1 mph25.9 kmh 30.11 in1019.6 mb - 0.00 in0.0 mm 0.00 in0.0 mm
01:55 AM 48.7°F9.3°C 41.8°F5.4°C 77% 12.7 mph SW20.4 kmh SW 19.6 mph31.5 kmh 30.12 in1020.0 mb - 0.00 in0.0 mm 0.00 in0.0 mm
02:00 AM 48.7°F9.3°C 41.8°F5.4°C 77% 9.2 mph SW14.8 kmh SW 15.0 mph24.1 kmh 30.11 in1019.6 mb - 0.00 in0.0 mm 0.00 in0.0 mm
02:05 AM 48.7°F9.3°C 41.8°F5.4°C 77% 9.2 mph SW14.8 kmh SW 11.5 mph18.5 kmh 30.11 in1019.6 mb - 0.00 in0.0 mm 0.00 in0.0 mm
02:10 AM 48.6°F9.2°C 41.7°F5.4°C 77% 10.4 mph SW16.7 kmh SW 11.5 mph18.5 kmh 30.11 in1019.6 mb - 0.00 in0.0 mm 0.00 in0.0 mm
02:15 AM 48.6°F9.2°C 41.7°F5.4°C 77% 8.1 mph SW13.0 kmh SW 11.5 mph18.5 kmh 30.11 in1019.6 mb - 0.00 in0.0 mm 0.00 in0.0 mm
02:20 AM 48.6°F9.2°C 41.7°F5.4°C 77% 11.5 mph SW18.5 kmh SW 17.3 mph27.8 kmh 30.11 in1019.6 mb - 0.00 in0.0 mm 0.00 in0.0 mm
02:25 AM 48.7°F9.3°C 41.8°F5.4°C 77% 9.2 mph SW14.8 kmh SW 11.5 mph18.5 kmh 30.11 in1019.6 mb - 0.00 in0.0 mm 0.00 in0.0 mm
02:30 AM 48.7°F9.3°C 41.8°F5.4°C 77% 6.9 mph WSW11.1 kmh WSW 13.8 mph22.2 kmh 30.11 in1019.6 mb - 0.00 in0.0 mm 0.00 in0.0 mm
02:35 AM 48.7°F9.3°C 41.8°F5.4°C 77% 6.9 mph SW11.1 kmh SW 11.5 mph18.5 kmh 30.11 in1019.6 mb - 0.00 in0.0 mm 0.00 in0.0 mm
02:40 AM 48.7°F9.3°C 41.8°F5.4°C 77% 6.9 mph SW11.1 kmh SW 10.4 mph16.7 kmh 30.11 in1019.6 mb - 0.00 in0.0 mm 0.00 in0.0 mm
02:45 AM 48.7°F9.3°C 41.8°F5.4°C 77% 8.1 mph WSW13.0 kmh WSW 11.5 mph18.5 kmh 30.11 in1019.6 mb - 0.00 in0.0 mm 0.00 in0.0 mm
02:50 AM 48.7°F9.3°C 41.8°F5.4°C 77% 6.9 mph SW11.1 kmh SW 8.1 mph13.0 kmh 30.11 in1019.6 mb - 0.00 in0.0 mm 0.00 in0.0 mm
02:55 AM 48.6°F9.2°C 41.7°F5.4°C 77% 8.1 mph SW13.0 kmh SW 13.8 mph22.2 kmh 30.11 in1019.6 mb - 0.00 in0.0 mm 0.00 in0.0 mm
03:00 AM 48.7°F9.3°C 41.8°F5.4°C 77% 6.9 mph WSW11.1 kmh WSW 10.4 mph16.7 kmh 30.11 in1019.6 mb - 0.00 in0.0 mm 0.00 in0.0 mm
03:05 AM 48.7°F9.3°C 41.8°F5.4°C 77% 10.4 mph SW16.7 kmh SW 16.1 mph25.9 kmh 30.10 in1019.3 mb - 0.00 in0.0 mm 0.00 in0.0 mm
03:10 AM 48.8°F9.3°C 41.9°F5.5°C 77% 6.9 mph SW11.1 kmh SW 11.5 mph18.5 kmh 30.10 in1019.3 mb - 0.00 in0.0 mm 0.00 in0.0 mm
03:15 AM 48.8°F9.3°C 41.9°F5.5°C 77% 12.7 mph SW20.4 kmh SW 17.3 mph27.8 kmh 30.10 in1019.3 mb - 0.00 in0.0 mm 0.00 in0.0 mm
03:20 AM 48.8°F9.3°C 41.9°F5.5°C 77% 6.9 mph SW11.1 kmh SW 11.5 mph18.5 kmh 30.10 in1019.3 mb - 0.00 in0.0 mm 0.00 in0.0 mm
03:25 AM 48.8°F9.3°C 41.9°F5.5°C 77% 8.1 mph SW13.0 kmh SW 11.5 mph18.5 kmh 30.10 in1019.3 mb - 0.00 in0.0 mm 0.00 in0.0 mm
03:30 AM 48.7°F9.3°C 41.8°F5.4°C 77% 8.1 mph WSW13.0 kmh WSW 11.5 mph18.5 kmh 30.10 in1019.3 mb - 0.00 in0.0 mm 0.00 in0.0 mm
03:35 AM 48.6°F9.2°C 41.7°F5.4°C 77% 8.1 mph SW13.0 kmh SW 13.8 mph22.2 kmh 30.09 in1019.0 mb - 0.00 in0.0 mm 0.00 in0.0 mm
03:40 AM 48.6°F9.2°C 41.7°F5.4°C 77% 8.1 mph WSW13.0 kmh WSW 11.5 mph18.5 kmh 30.09 in1019.0 mb - 0.00 in0.0 mm 0.00 in0.0 mm
03:45 AM 48.6°F9.2°C 41.7°F5.4°C 77% 10.4 mph SW16.7 kmh SW 10.4 mph16.7 kmh 30.09 in1019.0 mb - 0.00 in0.0 mm 0.00 in0.0 mm
03:50 AM 48.7°F9.3°C 41.8°F5.4°C 77% 8.1 mph WSW13.0 kmh WSW 13.8 mph22.2 kmh 30.09 in1019.0 mb - 0.00 in0.0 mm 0.00 in0.0 mm
03:55 AM 48.7°F9.3°C 41.8°F5.4°C 77% 8.1 mph WSW13.0 kmh WSW 12.7 mph20.4 kmh 30.09 in1019.0 mb - 0.00 in0.0 mm 0.00 in0.0 mm
04:00 AM 48.7°F9.3°C 41.8°F5.4°C 77% 9.2 mph SW14.8 kmh SW 11.5 mph18.5 kmh 30.09 in1019.0 mb - 0.00 in0.0 mm 0.00 in0.0 mm
04:05 AM 48.7°F9.3°C 41.8°F5.4°C 77% 11.5 mph SW18.5 kmh SW 17.3 mph27.8 kmh 30.08 in1018.6 mb - 0.00 in0.0 mm 0.00 in0.0 mm
04:10 AM 48.7°F9.3°C 41.8°F5.4°C 77% 10.4 mph SW16.7 kmh SW 15.0 mph24.1 kmh 30.08 in1018.6 mb - 0.00 in0.0 mm 0.00 in0.0 mm
04:15 AM 48.7°F9.3°C 41.8°F5.4°C 77% 10.4 mph SW16.7 kmh SW 13.8 mph22.2 kmh 30.08 in1018.6 mb - 0.00 in0.0 mm 0.00 in0.0 mm
04:20 AM 48.7°F9.3°C 41.8°F5.4°C 77% 8.1 mph SW13.0 kmh SW 13.8 mph22.2 kmh 30.08 in1018.6 mb - 0.00 in0.0 mm 0.00 in0.0 mm
04:25 AM 48.7°F9.3°C 41.8°F5.4°C 77% 8.1 mph WSW13.0 kmh WSW 15.0 mph24.1 kmh 30.07 in1018.3 mb - 0.00 in0.0 mm 0.00 in0.0 mm
04:30 AM 48.7°F9.3°C 41.8°F5.4°C 77% 9.2 mph SW14.8 kmh SW 16.1 mph25.9 kmh 30.07 in1018.3 mb - 0.00 in0.0 mm 0.00 in0.0 mm
04:35 AM 48.6°F9.2°C 41.7°F5.4°C 77% 10.4 mph WSW16.7 kmh WSW 15.0 mph24.1 kmh 30.07 in1018.3 mb - 0.00 in0.0 mm 0.00 in0.0 mm
04:40 AM 48.6°F9.2°C 41.7°F5.4°C 77% 11.5 mph WSW18.5 kmh WSW 16.1 mph25.9 kmh 30.07 in1018.3 mb - 0.00 in0.0 mm 0.00 in0.0 mm
04:45 AM 48.5°F9.2°C 41.6°F5.3°C 77% 8.1 mph SW13.0 kmh SW 16.1 mph25.9 kmh 30.07 in1018.3 mb - 0.00 in0.0 mm 0.00 in0.0 mm
04:50 AM 48.5°F9.2°C 41.6°F5.3°C 77% 6.9 mph WSW11.1 kmh WSW 11.5 mph18.5 kmh 30.07 in1018.3 mb - 0.00 in0.0 mm 0.00 in0.0 mm
04:55 AM 48.5°F9.2°C 41.6°F5.3°C 77% 10.4 mph WSW16.7 kmh WSW 15.0 mph24.1 kmh 30.07 in1018.3 mb - 0.00 in0.0 mm 0.00 in0.0 mm
05:00 AM 48.5°F9.2°C 41.6°F5.3°C 77% 11.5 mph SW18.5 kmh SW 19.6 mph31.5 kmh 30.07 in1018.3 mb - 0.00 in0.0 mm 0.00 in0.0 mm
05:05 AM 48.7°F9.3°C 41.8°F5.4°C 77% 13.8 mph SW22.2 kmh SW 18.4 mph29.6 kmh 30.07 in1018.3 mb - 0.00 in0.0 mm 0.00 in0.0 mm
05:10 AM 48.7°F9.3°C 41.8°F5.4°C 77% 8.1 mph SW13.0 kmh SW 11.5 mph18.5 kmh 30.07 in1018.3 mb - 0.00 in0.0 mm 0.00 in0.0 mm
05:15 AM 48.7°F9.3°C 41.8°F5.4°C 77% 5.8 mph SW9.3 kmh SW 6.9 mph11.1 kmh 30.07 in1018.3 mb - 0.00 in0.0 mm 0.00 in0.0 mm
05:20 AM 48.6°F9.2°C 41.7°F5.4°C 77% 9.2 mph WSW14.8 kmh WSW 11.5 mph18.5 kmh 30.07 in1018.3 mb - 0.00 in0.0 mm 0.00 in0.0 mm
05:25 AM 48.5°F9.2°C 41.6°F5.3°C 77% 5.8 mph SW9.3 kmh SW 11.5 mph18.5 kmh 30.07 in1018.3 mb - 0.00 in0.0 mm 0.00 in0.0 mm
05:30 AM 48.5°F9.2°C 41.6°F5.3°C 77% 6.9 mph WSW11.1 kmh WSW 13.8 mph22.2 kmh 30.07 in1018.3 mb - 0.00 in0.0 mm 0.00 in0.0 mm
05:35 AM 48.4°F9.1°C 41.5°F5.3°C 77% 6.9 mph WSW11.1 kmh WSW 9.2 mph14.8 kmh 30.07 in1018.3 mb - 0.00 in0.0 mm 0.00 in0.0 mm
05:40 AM 48.4°F9.1°C 41.5°F5.3°C 77% 6.9 mph WSW11.1 kmh WSW 11.5 mph18.5 kmh 30.07 in1018.3 mb - 0.00 in0.0 mm 0.00 in0.0 mm
05:45 AM 48.5°F9.2°C 41.6°F5.3°C 77% 8.1 mph WSW13.0 kmh WSW 12.7 mph20.4 kmh 30.06 in1017.9 mb - 0.00 in0.0 mm 0.00 in0.0 mm
05:50 AM 48.5°F9.2°C 41.6°F5.3°C 77% 4.6 mph SW7.4 kmh SW 10.4 mph16.7 kmh 30.06 in1017.9 mb - 0.00 in0.0 mm 0.00 in0.0 mm
05:55 AM 48.6°F9.2°C 41.7°F5.4°C 77% 4.6 mph SW7.4 kmh SW 10.4 mph16.7 kmh 30.06 in1017.9 mb - 0.00 in0.0 mm 0.00 in0.0 mm
06:00 AM 48.6°F9.2°C 41.7°F5.4°C 77% 4.6 mph WSW7.4 kmh WSW 11.5 mph18.5 kmh 30.06 in1017.9 mb - 0.00 in0.0 mm 0.00 in0.0 mm
06:05 AM 48.6°F9.2°C 41.7°F5.4°C 77% 4.6 mph WSW7.4 kmh WSW 5.8 mph9.3 kmh 30.06 in1017.9 mb - 0.00 in0.0 mm 0.00 in0.0 mm
06:10 AM 48.6°F9.2°C 41.7°F5.4°C 77% 4.6 mph SW7.4 kmh SW 9.2 mph14.8 kmh 30.06 in1017.9 mb - 0.00 in0.0 mm 0.00 in0.0 mm
06:15 AM 48.6°F9.2°C 41.7°F5.4°C 77% 8.1 mph WSW13.0 kmh WSW 11.5 mph18.5 kmh 30.06 in1017.9 mb - 0.00 in0.0 mm 0.00 in0.0 mm
06:20 AM 48.6°F9.2°C 41.7°F5.4°C 77% 5.8 mph SW9.3 kmh SW 6.9 mph11.1 kmh 30.05 in1017.6 mb - 0.00 in0.0 mm 0.00 in0.0 mm
06:25 AM 48.6°F9.2°C 41.7°F5.4°C 77% 8.1 mph WSW13.0 kmh WSW 10.4 mph16.7 kmh 30.05 in1017.6 mb - 0.00 in0.0 mm 0.00 in0.0 mm
06:30 AM 48.5°F9.2°C 41.6°F5.3°C 77% 5.8 mph SW9.3 kmh SW 10.4 mph16.7 kmh 30.05 in1017.6 mb - 0.00 in0.0 mm 0.00 in0.0 mm
06:35 AM 48.4°F9.1°C 41.5°F5.3°C 77% 6.9 mph SW11.1 kmh SW 10.4 mph16.7 kmh 30.05 in1017.6 mb - 0.00 in0.0 mm 0.00 in0.0 mm
06:40 AM 48.3°F9.1°C 41.4°F5.2°C 77% 6.9 mph SW11.1 kmh SW 9.2 mph14.8 kmh 30.05 in1017.6 mb - 0.00 in0.0 mm 0.00 in0.0 mm
06:45 AM 48.2°F9.0°C 41.7°F5.4°C 78% 8.1 mph SW13.0 kmh SW 10.4 mph16.7 kmh 30.05 in1017.6 mb - 0.00 in0.0 mm 0.00 in0.0 mm
06:50 AM 48.1°F8.9°C 41.6°F5.3°C 78% 6.9 mph SW11.1 kmh SW 15.0 mph24.1 kmh 30.04 in1017.3 mb - 0.00 in0.0 mm 0.00 in0.0 mm
06:55 AM 48.1°F8.9°C 41.6°F5.3°C 78% 8.1 mph SW13.0 kmh SW 9.2 mph14.8 kmh 30.04 in1017.3 mb - 0.00 in0.0 mm 0.00 in0.0 mm
07:00 AM 48.0°F8.9°C 41.5°F5.3°C 78% 9.2 mph SW14.8 kmh SW 11.5 mph18.5 kmh 30.04 in1017.3 mb - 0.00 in0.0 mm 0.00 in0.0 mm
07:05 AM 47.9°F8.8°C 41.4°F5.2°C 78% 4.6 mph WSW7.4 kmh WSW 9.2 mph14.8 kmh 30.03 in1016.9 mb - 0.00 in0.0 mm 0.00 in0.0 mm
07:10 AM 47.8°F8.8°C 41.3°F5.2°C 78% 5.8 mph WSW9.3 kmh WSW 6.9 mph11.1 kmh 30.03 in1016.9 mb - 0.00 in0.0 mm 0.00 in0.0 mm
07:15 AM 47.8°F8.8°C 41.3°F5.2°C 78% 4.6 mph WSW7.4 kmh WSW 4.6 mph7.4 kmh 30.03 in1016.9 mb - 0.00 in0.0 mm 0.00 in0.0 mm
07:20 AM 47.7°F8.7°C 41.2°F5.1°C 78% 4.6 mph SW7.4 kmh SW 4.6 mph7.4 kmh 30.02 in1016.6 mb - 0.00 in0.0 mm 0.00 in0.0 mm
07:25 AM 47.7°F8.7°C 41.2°F5.1°C 78% 8.1 mph SW13.0 kmh SW 15.0 mph24.1 kmh 30.02 in1016.6 mb - 0.00 in0.0 mm 0.00 in0.0 mm
07:30 AM 47.9°F8.8°C 41.4°F5.2°C 78% 8.1 mph WSW13.0 kmh WSW 13.8 mph22.2 kmh 30.02 in1016.6 mb - 0.00 in0.0 mm 0.00 in0.0 mm
07:35 AM 48.0°F8.9°C 41.5°F5.3°C 78% 9.2 mph SW14.8 kmh SW 16.1 mph25.9 kmh 30.02 in1016.6 mb - 0.00 in0.0 mm 0.00 in0.0 mm
07:40 AM 48.2°F9.0°C 41.7°F5.4°C 78% 8.1 mph SW13.0 kmh SW 17.3 mph27.8 kmh 30.02 in1016.6 mb - 0.00 in0.0 mm 0.00 in0.0 mm
07:45 AM 48.3°F9.1°C 41.8°F5.4°C 78% 6.9 mph SW11.1 kmh SW 12.7 mph20.4 kmh 30.02 in1016.6 mb - 0.00 in0.0 mm 0.00 in0.0 mm
07:50 AM 48.3°F9.1°C 41.4°F5.2°C 77% 10.4 mph SW16.7 kmh SW 12.7 mph20.4 kmh 30.01 in1016.3 mb - 0.00 in0.0 mm 0.00 in0.0 mm
07:55 AM 48.4°F9.1°C 41.5°F5.3°C 77% 9.2 mph SW14.8 kmh SW 17.3 mph27.8 kmh 30.01 in1016.3 mb - 0.00 in0.0 mm 0.00 in0.0 mm
08:00 AM 48.5°F9.2°C 41.6°F5.3°C 77% 8.1 mph WSW13.0 kmh WSW 13.8 mph22.2 kmh 30.01 in1016.3 mb - 0.00 in0.0 mm 0.00 in0.0 mm
08:05 AM 48.5°F9.2°C 41.6°F5.3°C 77% 6.9 mph SW11.1 kmh SW 11.5 mph18.5 kmh 30.01 in1016.3 mb - 0.00 in0.0 mm 0.00 in0.0 mm
08:10 AM 48.5°F9.2°C 41.6°F5.3°C 77% 6.9 mph SW11.1 kmh SW 12.7 mph20.4 kmh 30.01 in1016.3 mb - 0.00 in0.0 mm 0.00 in0.0 mm
08:15 AM 48.6°F9.2°C 41.7°F5.4°C 77% 9.2 mph SW14.8 kmh SW 13.8 mph22.2 kmh 30.01 in1016.3 mb - 0.00 in0.0 mm 0.00 in0.0 mm
08:20 AM 48.6°F9.2°C 41.7°F5.4°C 77% 12.7 mph SW20.4 kmh SW 19.6 mph31.5 kmh 30.01 in1016.3 mb - 0.00 in0.0 mm 0.00 in0.0 mm
08:25 AM 48.9°F9.4°C 42.0°F5.6°C 77% 6.9 mph WSW11.1 kmh WSW 10.4 mph16.7 kmh 30.01 in1016.3 mb - 0.00 in0.0 mm 0.00 in0.0 mm
08:30 AM 48.9°F9.4°C 42.0°F5.6°C 77% 9.2 mph SW14.8 kmh SW 15.0 mph24.1 kmh 30.00 in1015.9 mb - 0.00 in0.0 mm 0.00 in0.0 mm
08:35 AM 49.0°F9.4°C 42.1°F5.6°C 77% 3.5 mph SW5.6 kmh SW 4.6 mph7.4 kmh 30.00 in1015.9 mb - 0.00 in0.0 mm 0.00 in0.0 mm
08:40 AM 48.9°F9.4°C 42.0°F5.6°C 77% 5.8 mph WSW9.3 kmh WSW 9.2 mph14.8 kmh 30.00 in1015.9 mb - 0.00 in0.0 mm 0.00 in0.0 mm
08:45 AM 48.8°F9.3°C 41.9°F5.5°C 77% 3.5 mph SW5.6 kmh SW 4.6 mph7.4 kmh 29.99 in1015.6 mb - 0.00 in0.0 mm 0.00 in0.0 mm
08:50 AM 48.8°F9.3°C 41.9°F5.5°C 77% 2.3 mph SW3.7 kmh SW 3.5 mph5.6 kmh 29.99 in1015.6 mb - 0.00 in0.0 mm 0.00 in0.0 mm
08:55 AM 48.7°F9.3°C 41.8°F5.4°C 77% 2.3 mph SW3.7 kmh SW 9.2 mph14.8 kmh 29.99 in1015.6 mb - 0.00 in0.0 mm 0.00 in0.0 mm
09:00 AM 48.8°F9.3°C 41.9°F5.5°C 77% 5.8 mph SW9.3 kmh SW 8.1 mph13.0 kmh 29.98 in1015.2 mb - 0.00 in0.0 mm 0.00 in0.0 mm
09:05 AM 48.9°F9.4°C 42.0°F5.6°C 77% 4.6 mph SW7.4 kmh SW 10.4 mph16.7 kmh 29.98 in1015.2 mb - 0.00 in0.0 mm 0.00 in0.0 mm
09:10 AM 48.9°F9.4°C 42.0°F5.6°C 77% 4.6 mph SW7.4 kmh SW 11.5 mph18.5 kmh 29.98 in1015.2 mb - 0.00 in0.0 mm 0.00 in0.0 mm
09:15 AM 48.9°F9.4°C 42.0°F5.6°C 77% 3.5 mph SW5.6 kmh SW 3.5 mph5.6 kmh 29.98 in1015.2 mb - 0.00 in0.0 mm 0.00 in0.0 mm
09:20 AM 49.0°F9.4°C 42.1°F5.6°C 77% 4.6 mph SW7.4 kmh SW 13.8 mph22.2 kmh 29.98 in1015.2 mb - 0.00 in0.0 mm 0.00 in0.0 mm
09:25 AM 49.1°F9.5°C 42.2°F5.7°C 77% 5.8 mph SW9.3 kmh SW 4.6 mph7.4 kmh 29.98 in1015.2 mb - 0.00 in0.0 mm 0.00 in0.0 mm
09:30 AM 49.1°F9.5°C 42.2°F5.7°C 77% 4.6 mph SW7.4 kmh SW 11.5 mph18.5 kmh 29.97 in1014.9 mb - 0.00 in0.0 mm 0.00 in0.0 mm
09:35 AM 49.2°F9.6°C 42.3°F5.7°C 77% 3.5 mph SW5.6 kmh SW 5.8 mph9.3 kmh 29.97 in1014.9 mb - 0.00 in0.0 mm 0.00 in0.0 mm
09:40 AM 49.2°F9.6°C 42.3°F5.7°C 77% 3.5 mph SW5.6 kmh SW 8.1 mph13.0 kmh 29.97 in1014.9 mb - 0.00 in0.0 mm 0.00 in0.0 mm
09:45 AM 49.3°F9.6°C 42.1°F5.6°C 76% 2.3 mph SW3.7 kmh SW 4.6 mph7.4 kmh 29.97 in1014.9 mb - 0.00 in0.0 mm 0.00 in0.0 mm
09:50 AM 49.3°F9.6°C 42.1°F5.6°C 76% 2.3 mph SW3.7 kmh SW 3.5 mph5.6 kmh 29.96 in1014.6 mb - 0.00 in0.0 mm 0.00 in0.0 mm
09:55 AM 49.4°F9.7°C 42.1°F5.6°C 76% 3.5 mph SW5.6 kmh SW 9.2 mph14.8 kmh 29.96 in1014.6 mb - 0.00 in0.0 mm 0.00 in0.0 mm
10:00 AM 49.5°F9.7°C 42.2°F5.7°C 76% 5.8 mph SW9.3 kmh SW 10.4 mph16.7 kmh 29.96 in1014.6 mb - 0.00 in0.0 mm 0.00 in0.0 mm
10:05 AM 49.6°F9.8°C 42.3°F5.7°C 76% 9.2 mph SW14.8 kmh SW 13.8 mph22.2 kmh 29.95 in1014.2 mb - 0.00 in0.0 mm 0.00 in0.0 mm
10:10 AM 49.7°F9.8°C 42.4°F5.8°C 76% 8.1 mph SW13.0 kmh SW 10.4 mph16.7 kmh 29.95 in1014.2 mb - 0.00 in0.0 mm 0.00 in0.0 mm
10:15 AM 49.9°F9.9°C 42.6°F5.9°C 76% 5.8 mph WSW9.3 kmh WSW 10.4 mph16.7 kmh 29.95 in1014.2 mb - 0.00 in0.0 mm 0.00 in0.0 mm
10:20 AM 50.0°F10.0°C 42.7°F5.9°C 76% 3.5 mph SSW5.6 kmh SSW 3.5 mph5.6 kmh 29.95 in1014.2 mb - 0.00 in0.0 mm 0.00 in0.0 mm
10:25 AM 50.0°F10.0°C 42.7°F5.9°C 76% 8.1 mph WSW13.0 kmh WSW 11.5 mph18.5 kmh 29.94 in1013.9 mb - 0.00 in0.0 mm 0.00 in0.0 mm
10:30 AM 50.1°F10.1°C 42.8°F6.0°C 76% 11.5 mph SW18.5 kmh SW 13.8 mph22.2 kmh 29.94 in1013.9 mb - 0.00 in0.0 mm 0.00 in0.0 mm
10:35 AM 50.4°F10.2°C 43.1°F6.2°C 76% 9.2 mph SW14.8 kmh SW 18.4 mph29.6 kmh 29.94 in1013.9 mb - 0.00 in0.0 mm 0.00 in0.0 mm
10:40 AM 50.5°F10.3°C 43.2°F6.2°C 76% 8.1 mph WSW13.0 kmh WSW 12.7 mph20.4 kmh 29.94 in1013.9 mb - 0.00 in0.0 mm 0.00 in0.0 mm
10:45 AM 50.5°F10.3°C 43.2°F6.2°C 76% 10.4 mph WSW16.7 kmh WSW 11.5 mph18.5 kmh 29.93 in1013.5 mb - 0.00 in0.0 mm 0.00 in0.0 mm
10:50 AM 50.6°F10.3°C 43.3°F6.3°C 76% 5.8 mph WSW9.3 kmh WSW 6.9 mph11.1 kmh 29.93 in1013.5 mb - 0.00 in0.0 mm 0.00 in0.0 mm
10:55 AM 50.5°F10.3°C 43.2°F6.2°C 76% 8.1 mph SW13.0 kmh SW 11.5 mph18.5 kmh 29.93 in1013.5 mb - 0.00 in0.0 mm 0.00 in0.0 mm
11:00 AM 50.5°F10.3°C 43.2°F6.2°C 76% 10.4 mph SW16.7 kmh SW 11.5 mph18.5 kmh 29.93 in1013.5 mb - 0.00 in0.0 mm 0.00 in0.0 mm
11:05 AM 50.5°F10.3°C 43.2°F6.2°C 76% 9.2 mph SW14.8 kmh SW 11.5 mph18.5 kmh 29.93 in1013.5 mb - 0.00 in0.0 mm 0.00 in0.0 mm
11:10 AM 50.5°F10.3°C 43.2°F6.2°C 76% 8.1 mph WSW13.0 kmh WSW 11.5 mph18.5 kmh 29.93 in1013.5 mb - 0.00 in0.0 mm 0.00 in0.0 mm
11:15 AM 50.6°F10.3°C 43.3°F6.3°C 76% 9.2 mph WSW14.8 kmh WSW 13.8 mph22.2 kmh 29.92 in1013.2 mb - 0.00 in0.0 mm 0.00 in0.0 mm
11:20 AM 50.7°F10.4°C 43.4°F6.3°C 76% 10.4 mph SW16.7 kmh SW 19.6 mph31.5 kmh 29.92 in1013.2 mb - 0.00 in0.0 mm 0.00 in0.0 mm
11:25 AM 50.8°F10.4°C 43.5°F6.4°C 76% 9.2 mph WSW14.8 kmh WSW 12.7 mph20.4 kmh 29.92 in1013.2 mb - 0.00 in0.0 mm 0.00 in0.0 mm
11:30 AM 50.8°F10.4°C 43.5°F6.4°C 76% 8.1 mph SW13.0 kmh SW 12.7 mph20.4 kmh 29.91 in1012.9 mb - 0.00 in0.0 mm 0.00 in0.0 mm
11:35 AM 50.8°F10.4°C 43.5°F6.4°C 76% 6.9 mph SW11.1 kmh SW 11.5 mph18.5 kmh 29.91 in1012.9 mb - 0.00 in0.0 mm 0.00 in0.0 mm
11:40 AM 50.7°F10.4°C 43.8°F6.6°C 77% 9.2 mph SW14.8 kmh SW 12.7 mph20.4 kmh 29.91 in1012.9 mb - 0.00 in0.0 mm 0.00 in0.0 mm
11:45 AM 50.6°F10.3°C 43.7°F6.5°C 77% 8.1 mph WSW13.0 kmh WSW 11.5 mph18.5 kmh 29.90 in1012.5 mb - 0.00 in0.0 mm 0.00 in0.0 mm
11:50 AM 50.5°F10.3°C 43.6°F6.4°C 77% 6.9 mph SW11.1 kmh SW 16.1 mph25.9 kmh 29.90 in1012.5 mb - 0.00 in0.0 mm 0.00 in0.0 mm
11:55 AM 50.4°F10.2°C 43.5°F6.4°C 77% 11.5 mph SW18.5 kmh SW 16.1 mph25.9 kmh 29.90 in1012.5 mb - 0.00 in0.0 mm 0.00 in0.0 mm
12:00 PM 50.3°F10.2°C 43.4°F6.3°C 77% 9.2 mph WSW14.8 kmh WSW 13.8 mph22.2 kmh 29.89 in1012.2 mb - 0.00 in0.0 mm 0.00 in0.0 mm
12:05 PM 50.3°F10.2°C 43.4°F6.3°C 77% 6.9 mph SW11.1 kmh SW 9.2 mph14.8 kmh 29.89 in1012.2 mb - 0.00 in0.0 mm 0.00 in0.0 mm
12:10 PM 50.2°F10.1°C 43.3°F6.3°C 77% 4.6 mph SW7.4 kmh SW 8.1 mph13.0 kmh 29.89 in1012.2 mb - 0.00 in0.0 mm 0.00 in0.0 mm
12:15 PM 50.2°F10.1°C 43.2°F6.2°C 77% 6.9 mph SW11.1 kmh SW 11.5 mph18.5 kmh 29.88 in1011.9 mb - 0.00 in0.0 mm 0.00 in0.0 mm
12:20 PM 50.1°F10.1°C 43.2°F6.2°C 77% 8.1 mph SW13.0 kmh SW 11.5 mph18.5 kmh 29.88 in1011.9 mb - 0.00 in0.0 mm 0.00 in0.0 mm
12:25 PM 50.0°F10.0°C 43.1°F6.2°C 77% 8.1 mph WSW13.0 kmh WSW 11.5 mph18.5 kmh 29.87 in1011.5 mb - 0.00 in0.0 mm 0.00 in0.0 mm
12:30 PM 49.9°F9.9°C 43.0°F6.1°C 77% 4.6 mph SW7.4 kmh SW 11.5 mph18.5 kmh 29.87 in1011.5 mb - 0.00 in0.0 mm 0.00 in0.0 mm
12:35 PM 49.8°F9.9°C 42.9°F6.1°C 77% 4.6 mph SW7.4 kmh SW 6.9 mph11.1 kmh 29.86 in1011.2 mb - 0.00 in0.0 mm 0.00 in0.0 mm
12:40 PM 49.6°F9.8°C 43.0°F6.1°C 78% 9.2 mph SW14.8 kmh SW 18.4 mph29.6 kmh 29.86 in1011.2 mb - 0.00 in0.0 mm 0.00 in0.0 mm
12:45 PM 49.5°F9.7°C 42.9°F6.1°C 78% 8.1 mph SW13.0 kmh SW 11.5 mph18.5 kmh 29.86 in1011.2 mb - 0.00 in0.0 mm 0.00 in0.0 mm
12:50 PM 49.3°F9.6°C 42.8°F6.0°C 78% 6.9 mph SW11.1 kmh SW 11.5 mph18.5 kmh 29.85 in1010.8 mb - 0.01 in0.3 mm 0.01 in0.3 mm
12:55 PM 49.2°F9.6°C 43.0°F6.1°C 79% 5.8 mph SW9.3 kmh SW 6.9 mph11.1 kmh 29.85 in1010.8 mb - 0.01 in0.3 mm 0.01 in0.3 mm
01:00 PM 49.2°F9.6°C 43.0°F6.1°C 79% 5.8 mph SW9.3 kmh SW 11.5 mph18.5 kmh 29.84 in1010.5 mb - 0.00 in0.0 mm 0.01 in0.3 mm
01:05 PM 49.1°F9.5°C 42.9°F6.1°C 79% 4.6 mph SW7.4 kmh SW 10.4 mph16.7 kmh 29.84 in1010.5 mb - 0.00 in0.0 mm 0.01 in0.3 mm
01:10 PM 49.1°F9.5°C 43.2°F6.2°C 80% 4.6 mph WSW7.4 kmh WSW 6.9 mph11.1 kmh 29.84 in1010.5 mb - 0.00 in0.0 mm 0.01 in0.3 mm
01:15 PM 49.0°F9.4°C 43.1°F6.2°C 80% 5.8 mph SW9.3 kmh SW 9.2 mph14.8 kmh 29.83 in1010.2 mb - 0.00 in0.0 mm 0.01 in0.3 mm
01:20 PM 49.0°F9.4°C 43.1°F6.2°C 80% 4.6 mph SW7.4 kmh SW 8.1 mph13.0 kmh 29.83 in1010.2 mb - 0.00 in0.0 mm 0.01 in0.3 mm
01:25 PM 49.0°F9.4°C 43.1°F6.2°C 80% 8.1 mph SW13.0 kmh SW 11.5 mph18.5 kmh 29.82 in1009.8 mb - 0.00 in0.0 mm 0.01 in0.3 mm
01:30 PM 49.1°F9.5°C 43.2°F6.2°C 80% 6.9 mph WSW11.1 kmh WSW 12.7 mph20.4 kmh 29.82 in1009.8 mb - 0.00 in0.0 mm 0.01 in0.3 mm
01:35 PM 49.1°F9.5°C 43.2°F6.2°C 80% 8.1 mph SW13.0 kmh SW 15.0 mph24.1 kmh 29.82 in1009.8 mb - 0.00 in0.0 mm 0.01 in0.3 mm
01:40 PM 49.2°F9.6°C 43.3°F6.3°C 80% 5.8 mph SW9.3 kmh SW 12.7 mph20.4 kmh 29.81 in1009.5 mb - 0.00 in0.0 mm 0.01 in0.3 mm
01:45 PM 49.2°F9.6°C 43.3°F6.3°C 80% 5.8 mph WSW9.3 kmh WSW 9.2 mph14.8 kmh 29.81 in1009.5 mb - 0.00 in0.0 mm 0.01 in0.3 mm
01:50 PM 49.2°F9.6°C 43.3°F6.3°C 80% 8.1 mph SW13.0 kmh SW 16.1 mph25.9 kmh 29.81 in1009.5 mb - 0.00 in0.0 mm 0.01 in0.3 mm
01:55 PM 49.2°F9.6°C 43.3°F6.3°C 80% 6.9 mph SW11.1 kmh SW 8.1 mph13.0 kmh 29.81 in1009.5 mb - 0.00 in0.0 mm 0.01 in0.3 mm
02:00 PM 49.2°F9.6°C 43.3°F6.3°C 80% 9.2 mph SW14.8 kmh SW 12.7 mph20.4 kmh 29.80 in1009.1 mb - 0.00 in0.0 mm 0.01 in0.3 mm
02:05 PM 49.2°F9.6°C 43.3°F6.3°C 80% 8.1 mph SW13.0 kmh SW 11.5 mph18.5 kmh 29.80 in1009.1 mb - 0.00 in0.0 mm 0.01 in0.3 mm
02:10 PM 49.3°F9.6°C 43.3°F6.3°C 80% 9.2 mph WSW14.8 kmh WSW 12.7 mph20.4 kmh 29.80 in1009.1 mb - 0.01 in0.3 mm 0.02 in0.5 mm
02:15 PM 49.4°F9.7°C 43.5°F6.4°C 80% 11.5 mph SW18.5 kmh SW 12.7 mph20.4 kmh 29.79 in1008.8 mb - 0.00 in0.0 mm 0.02 in0.5 mm
02:20 PM 49.5°F9.7°C 43.6°F6.4°C 80% 5.8 mph WSW9.3 kmh WSW 10.4 mph16.7 kmh 29.79 in1008.8 mb - 0.00 in0.0 mm 0.02 in0.5 mm
02:25 PM 49.6°F9.8°C 43.7°F6.5°C 80% 4.6 mph WSW7.4 kmh WSW 8.1 mph13.0 kmh 29.79 in1008.8 mb - 0.00 in0.0 mm 0.02 in0.5 mm
02:30 PM 49.6°F9.8°C 43.7°F6.5°C 80% 6.9 mph SW11.1 kmh SW 10.4 mph16.7 kmh 29.79 in1008.8 mb - 0.00 in0.0 mm 0.02 in0.5 mm
02:35 PM 49.6°F9.8°C 43.7°F6.5°C 80% 8.1 mph WSW13.0 kmh WSW 9.2 mph14.8 kmh 29.78 in1008.5 mb - 0.00 in0.0 mm 0.02 in0.5 mm
02:40 PM 49.7°F9.8°C 43.8°F6.6°C 80% 6.9 mph WSW11.1 kmh WSW 9.2 mph14.8 kmh 29.77 in1008.1 mb - 0.00 in0.0 mm 0.02 in0.5 mm
02:45 PM 49.8°F9.9°C 43.9°F6.6°C 80% 4.6 mph SW7.4 kmh SW 8.1 mph13.0 kmh 29.77 in1008.1 mb - 0.00 in0.0 mm 0.02 in0.5 mm
02:50 PM 49.8°F9.9°C 43.8°F6.6°C 80% 3.5 mph SW5.6 kmh SW 3.5 mph5.6 kmh 29.77 in1008.1 mb - 0.00 in0.0 mm 0.02 in0.5 mm
02:55 PM 49.8°F9.9°C 43.8°F6.6°C 80% 5.8 mph WSW9.3 kmh WSW 8.1 mph13.0 kmh 29.76 in1007.8 mb - 0.00 in0.0 mm 0.02 in0.5 mm
03:00 PM 49.8°F9.9°C 43.9°F6.6°C 80% 5.8 mph WSW9.3 kmh WSW 9.2 mph14.8 kmh 29.76 in1007.8 mb - 0.00 in0.0 mm 0.02 in0.5 mm
03:05 PM 49.8°F9.9°C 43.9°F6.6°C 80% 6.9 mph SW11.1 kmh SW 11.5 mph18.5 kmh 29.75 in1007.5 mb - 0.00 in0.0 mm 0.02 in0.5 mm
03:10 PM 49.8°F9.9°C 43.9°F6.6°C 80% 4.6 mph SW7.4 kmh SW 6.9 mph11.1 kmh 29.75 in1007.5 mb - 0.00 in0.0 mm 0.02 in0.5 mm
03:15 PM 49.8°F9.9°C 43.9°F6.6°C 80% 10.4 mph SW16.7 kmh SW 16.1 mph25.9 kmh 29.75 in1007.5 mb - 0.00 in0.0 mm 0.02 in0.5 mm
03:20 PM 49.9°F9.9°C 44.0°F6.7°C 80% 10.4 mph SW16.7 kmh SW 15.0 mph24.1 kmh 29.75 in1007.5 mb - 0.00 in0.0 mm 0.02 in0.5 mm
03:25 PM 50.1°F10.1°C 44.2°F6.8°C 80% 8.1 mph SW13.0 kmh SW 15.0 mph24.1 kmh 29.74 in1007.1 mb - 0.00 in0.0 mm 0.02 in0.5 mm
03:30 PM 50.2°F10.1°C 44.3°F6.8°C 80% 10.4 mph SW16.7 kmh SW 18.4 mph29.6 kmh 29.73 in1006.8 mb - 0.00 in0.0 mm 0.02 in0.5 mm
03:35 PM 50.3°F10.2°C 44.0°F6.7°C 79% 13.8 mph SW22.2 kmh SW 18.4 mph29.6 kmh 29.73 in1006.8 mb - 0.00 in0.0 mm 0.02 in0.5 mm
03:40 PM 50.4°F10.2°C 44.1°F6.7°C 79% 10.4 mph SW16.7 kmh SW 19.6 mph31.5 kmh 29.73 in1006.8 mb - 0.00 in0.0 mm 0.02 in0.5 mm
03:45 PM 50.4°F10.2°C 44.1°F6.7°C 79% 6.9 mph SW11.1 kmh SW 15.0 mph24.1 kmh 29.73 in1006.8 mb - 0.00 in0.0 mm 0.02 in0.5 mm
03:50 PM 50.4°F10.2°C 44.1°F6.7°C 79% 8.1 mph WSW13.0 kmh WSW 16.1 mph25.9 kmh 29.72 in1006.4 mb - 0.00 in0.0 mm 0.02 in0.5 mm
03:55 PM 50.4°F10.2°C 44.5°F6.9°C 80% 6.9 mph SW11.1 kmh SW 16.1 mph25.9 kmh 29.72 in1006.4 mb - 0.00 in0.0 mm 0.02 in0.5 mm
04:00 PM 50.4°F10.2°C 44.2°F6.8°C 79% 8.1 mph SW13.0 kmh SW 18.4 mph29.6 kmh 29.72 in1006.4 mb - 0.00 in0.0 mm 0.02 in0.5 mm
04:05 PM 50.5°F10.3°C 44.2°F6.8°C 79% 8.1 mph SW13.0 kmh SW 16.1 mph25.9 kmh 29.71 in1006.1 mb - 0.00 in0.0 mm 0.02 in0.5 mm
04:10 PM 50.5°F10.3°C 44.2°F6.8°C 79% 10.4 mph SW16.7 kmh SW 12.7 mph20.4 kmh 29.71 in1006.1 mb - 0.00 in0.0 mm 0.02 in0.5 mm
04:15 PM 50.5°F10.3°C 44.2°F6.8°C 79% 12.7 mph SW20.4 kmh SW 17.3 mph27.8 kmh 29.71 in1006.1 mb - 0.00 in0.0 mm 0.02 in0.5 mm
04:20 PM 50.5°F10.3°C 44.6°F7.0°C 80% 10.4 mph SW16.7 kmh SW 13.8 mph22.2 kmh 29.71 in1006.1 mb - 0.00 in0.0 mm 0.02 in0.5 mm
04:25 PM 50.4°F10.2°C 44.5°F6.9°C 80% 8.1 mph SW13.0 kmh SW 11.5 mph18.5 kmh 29.70 in1005.8 mb - 0.00 in0.0 mm 0.02 in0.5 mm
04:30 PM 50.4°F10.2°C 44.5°F6.9°C 80% 10.4 mph SW16.7 kmh SW 13.8 mph22.2 kmh 29.70 in1005.8 mb - 0.00 in0.0 mm 0.02 in0.5 mm
04:35 PM 50.5°F10.3°C 44.6°F7.0°C 80% 9.2 mph SW14.8 kmh SW 16.1 mph25.9 kmh 29.69 in1005.4 mb - 0.00 in0.0 mm 0.02 in0.5 mm
04:40 PM 50.5°F10.3°C 44.6°F7.0°C 80% 8.1 mph SW13.0 kmh SW 13.8 mph22.2 kmh 29.69 in1005.4 mb - 0.00 in0.0 mm 0.02 in0.5 mm
04:45 PM 50.6°F10.3°C 44.7°F7.1°C 80% 9.2 mph WSW14.8 kmh WSW 13.8 mph22.2 kmh 29.69 in1005.4 mb - 0.00 in0.0 mm 0.02 in0.5 mm
04:50 PM 50.8°F10.4°C 44.9°F7.2°C 80% 8.1 mph WSW13.0 kmh WSW 13.8 mph22.2 kmh 29.68 in1005.1 mb - 0.00 in0.0 mm 0.02 in0.5 mm
04:55 PM 50.9°F10.5°C 44.6°F7.0°C 79% 5.8 mph SW9.3 kmh SW 10.4 mph16.7 kmh 29.68 in1005.1 mb - 0.00 in0.0 mm 0.02 in0.5 mm
05:00 PM 51.0°F10.6°C 44.7°F7.1°C 79% 10.4 mph SW16.7 kmh SW 16.1 mph25.9 kmh 29.68 in1005.1 mb - 0.00 in0.0 mm 0.02 in0.5 mm
05:05 PM 51.2°F10.7°C 44.9°F7.2°C 79% 11.5 mph SW18.5 kmh SW 19.6 mph31.5 kmh 29.68 in1005.1 mb - 0.00 in0.0 mm 0.02 in0.5 mm
05:10 PM 51.3°F10.7°C 45.0°F7.2°C 79% 9.2 mph SW14.8 kmh SW 21.9 mph35.2 kmh 29.67 in1004.7 mb - 0.00 in0.0 mm 0.02 in0.5 mm
05:15 PM 51.4°F10.8°C 45.1°F7.3°C 79% 8.1 mph WSW13.0 kmh WSW 15.0 mph24.1 kmh 29.67 in1004.7 mb - 0.00 in0.0 mm 0.02 in0.5 mm
05:20 PM 51.4°F10.8°C 45.1°F7.3°C 79% 8.1 mph SSW13.0 kmh SSW 11.5 mph18.5 kmh 29.67 in1004.7 mb - 0.00 in0.0 mm 0.02 in0.5 mm
05:25 PM 51.4°F10.8°C 45.1°F7.3°C 79% 8.1 mph SW13.0 kmh SW 12.7 mph20.4 kmh 29.66 in1004.4 mb - 0.00 in0.0 mm 0.02 in0.5 mm
05:30 PM 51.4°F10.8°C 45.1°F7.3°C 79% 9.2 mph SW14.8 kmh SW 19.6 mph31.5 kmh 29.66 in1004.4 mb - 0.00 in0.0 mm 0.02 in0.5 mm
05:35 PM 51.4°F10.8°C 45.1°F7.3°C 79% 10.4 mph SW16.7 kmh SW 15.0 mph24.1 kmh 29.66 in1004.4 mb - 0.00 in0.0 mm 0.02 in0.5 mm
05:40 PM 51.5°F10.8°C 45.2°F7.3°C 79% 6.9 mph SW11.1 kmh SW 10.4 mph16.7 kmh 29.66 in1004.4 mb - 0.00 in0.0 mm 0.02 in0.5 mm
05:45 PM 51.5°F10.8°C 45.2°F7.3°C 79% 5.8 mph SSW9.3 kmh SSW 9.2 mph14.8 kmh 29.65 in1004.1 mb - 0.00 in0.0 mm 0.02 in0.5 mm
05:50 PM 51.5°F10.8°C 45.2°F7.3°C 79% 11.5 mph SSW18.5 kmh SSW 18.4 mph29.6 kmh 29.65 in1004.1 mb - 0.00 in0.0 mm 0.02 in0.5 mm
05:55 PM 51.6°F10.9°C 45.3°F7.4°C 79% 4.6 mph SW7.4 kmh SW 12.7 mph20.4 kmh 29.65 in1004.1 mb - 0.00 in0.0 mm 0.02 in0.5 mm
06:00 PM 51.6°F10.9°C 45.3°F7.4°C 79% 10.4 mph WSW16.7 kmh WSW 17.3 mph27.8 kmh 29.65 in1004.1 mb - 0.00 in0.0 mm 0.02 in0.5 mm
06:05 PM 51.6°F10.9°C 45.3°F7.4°C 79% 9.2 mph SW14.8 kmh SW 13.8 mph22.2 kmh 29.65 in1004.1 mb - 0.00 in0.0 mm 0.02 in0.5 mm
06:10 PM 51.7°F10.9°C 45.4°F7.4°C 79% 9.2 mph SW14.8 kmh SW 13.8 mph22.2 kmh 29.64 in1003.7 mb - 0.00 in0.0 mm 0.02 in0.5 mm
06:15 PM 51.8°F11.0°C 45.5°F7.5°C 79% 6.9 mph WSW11.1 kmh WSW 16.1 mph25.9 kmh 29.64 in1003.7 mb - 0.00 in0.0 mm 0.02 in0.5 mm
06:20 PM 51.7°F10.9°C 45.4°F7.4°C 79% 5.8 mph SW9.3 kmh SW 9.2 mph14.8 kmh 29.64 in1003.7 mb - 0.00 in0.0 mm 0.02 in0.5 mm
06:25 PM 51.6°F10.9°C 45.3°F7.4°C 79% 6.9 mph SW11.1 kmh SW 16.1 mph25.9 kmh 29.63 in1003.4 mb - 0.00 in0.0 mm 0.02 in0.5 mm
06:30 PM 51.6°F10.9°C 45.3°F7.4°C 79% 4.6 mph SW7.4 kmh SW 10.4 mph16.7 kmh 29.63 in1003.4 mb - 0.00 in0.0 mm 0.02 in0.5 mm
06:35 PM 51.5°F10.8°C 45.2°F7.3°C 79% 4.6 mph SW7.4 kmh SW 9.2 mph14.8 kmh 29.62 in1003.0 mb - 0.00 in0.0 mm 0.02 in0.5 mm
06:40 PM 51.5°F10.8°C 45.2°F7.3°C 79% 3.5 mph WSW5.6 kmh WSW 3.5 mph5.6 kmh 29.61 in1002.7 mb - 0.00 in0.0 mm 0.02 in0.5 mm
06:45 PM 51.4°F10.8°C 45.4°F7.4°C 80% 3.5 mph WSW5.6 kmh WSW 6.9 mph11.1 kmh 29.61 in1002.7 mb - 0.00 in0.0 mm 0.02 in0.5 mm
06:50 PM 51.4°F10.8°C 45.4°F7.4°C 80% 6.9 mph SW11.1 kmh SW 11.5 mph18.5 kmh 29.61 in1002.7 mb - 0.00 in0.0 mm 0.02 in0.5 mm
06:55 PM 51.4°F10.8°C 45.4°F7.4°C 80% 5.8 mph SW9.3 kmh SW 8.1 mph13.0 kmh 29.60 in1002.4 mb - 0.00 in0.0 mm 0.02 in0.5 mm
07:00 PM 51.4°F10.8°C 45.4°F7.4°C 80% 10.4 mph WSW16.7 kmh WSW 18.4 mph29.6 kmh 29.60 in1002.4 mb - 0.00 in0.0 mm 0.02 in0.5 mm
07:05 PM 51.6°F10.9°C 45.6°F7.6°C 80% 9.2 mph SW14.8 kmh SW 10.4 mph16.7 kmh 29.60 in1002.4 mb - 0.00 in0.0 mm 0.02 in0.5 mm
07:10 PM 51.7°F10.9°C 45.7°F7.6°C 80% 6.9 mph SW11.1 kmh SW 10.4 mph16.7 kmh 29.59 in1002.0 mb - 0.00 in0.0 mm 0.02 in0.5 mm
07:15 PM 51.7°F10.9°C 45.1°F7.3°C 78% 9.2 mph SW14.8 kmh SW 13.8 mph22.2 kmh 29.59 in1002.0 mb - 0.00 in0.0 mm 0.02 in0.5 mm
07:20 PM 51.7°F10.9°C 45.7°F7.6°C 80% 3.5 mph WSW5.6 kmh WSW 8.1 mph13.0 kmh 29.59 in1002.0 mb - 0.00 in0.0 mm 0.02 in0.5 mm
07:25 PM 51.7°F10.9°C 45.7°F7.6°C 80% 3.5 mph SW5.6 kmh SW 4.6 mph7.4 kmh 29.58 in1001.7 mb - 0.00 in0.0 mm 0.02 in0.5 mm
07:30 PM 51.6°F10.9°C 45.6°F7.6°C 80% 6.9 mph SW11.1 kmh SW 10.4 mph16.7 kmh 29.58 in1001.7 mb - 0.00 in0.0 mm 0.02 in0.5 mm
07:35 PM 51.6°F10.9°C 45.6°F7.6°C 80% 2.3 mph SSW3.7 kmh SSW 5.8 mph9.3 kmh 29.57 in1001.4 mb - 0.01 in0.3 mm 0.03 in0.8 mm
07:40 PM 51.5°F10.8°C 45.5°F7.5°C 80% Calm Calm 1.2 mph1.9 kmh 29.57 in1001.4 mb - 0.00 in0.0 mm 0.03 in0.8 mm
07:45 PM 51.5°F10.8°C 45.9°F7.7°C 81% 2.3 mph SSE3.7 kmh SSE 3.5 mph5.6 kmh 29.57 in1001.4 mb - 0.00 in0.0 mm 0.03 in0.8 mm
07:50 PM 51.5°F10.8°C 45.9°F7.7°C 81% 4.6 mph SW7.4 kmh SW 11.5 mph18.5 kmh 29.56 in1001.0 mb - 0.00 in0.0 mm 0.03 in0.8 mm
07:55 PM 51.7°F10.9°C 45.7°F7.6°C 80% 6.9 mph SW11.1 kmh SW 11.5 mph18.5 kmh 29.56 in1001.0 mb - 0.00 in0.0 mm 0.03 in0.8 mm
08:00 PM 51.7°F10.9°C 45.7°F7.6°C 80% 6.9 mph SW11.1 kmh SW 12.7 mph20.4 kmh 29.56 in1001.0 mb - 0.00 in0.0 mm 0.03 in0.8 mm
08:05 PM 51.8°F11.0°C 45.8°F7.7°C 80% 9.2 mph SW14.8 kmh SW 11.5 mph18.5 kmh 29.55 in1000.7 mb - 0.00 in0.0 mm 0.03 in0.8 mm
08:10 PM 51.9°F11.1°C 45.9°F7.7°C 80% 11.5 mph WSW18.5 kmh WSW 17.3 mph27.8 kmh 29.54 in1000.3 mb - 0.00 in0.0 mm 0.03 in0.8 mm
08:15 PM 52.0°F11.1°C 46.0°F7.8°C 80% 3.5 mph SW5.6 kmh SW 13.8 mph22.2 kmh 29.54 in1000.3 mb - 0.00 in0.0 mm 0.03 in0.8 mm
08:20 PM 52.1°F11.2°C 46.1°F7.8°C 80% 8.1 mph SW13.0 kmh SW 11.5 mph18.5 kmh 29.54 in1000.3 mb - 0.01 in0.3 mm 0.03 in0.8 mm
08:25 PM 52.1°F11.2°C 46.1°F7.8°C 80% 2.3 mph SW3.7 kmh SW 3.5 mph5.6 kmh 29.53 in1000.0 mb - 0.02 in0.5 mm 0.05 in1.3 mm
08:30 PM 52.0°F11.1°C 46.0°F7.8°C 80% 5.8 mph SW9.3 kmh SW 11.5 mph18.5 kmh 29.53 in1000.0 mb - 0.02 in0.5 mm 0.06 in1.5 mm
08:35 PM 51.9°F11.1°C 46.3°F7.9°C 81% 4.6 mph WSW7.4 kmh WSW 6.9 mph11.1 kmh 29.52 in999.7 mb - 0.00 in0.0 mm 0.06 in1.5 mm
08:40 PM 51.8°F11.0°C 46.2°F7.9°C 81% 3.5 mph SW5.6 kmh SW 5.8 mph9.3 kmh 29.51 in999.3 mb - 0.00 in0.0 mm 0.06 in1.5 mm
08:45 PM 51.8°F11.0°C 46.2°F7.9°C 81% 1.2 mph WSW1.9 kmh WSW 3.5 mph5.6 kmh 29.51 in999.3 mb - 0.00 in0.0 mm 0.06 in1.5 mm
08:50 PM 51.9°F11.1°C 46.3°F7.9°C 81% 4.6 mph WSW7.4 kmh WSW 9.2 mph14.8 kmh 29.50 in999.0 mb - 0.00 in0.0 mm 0.06 in1.5 mm
08:55 PM 52.1°F11.2°C 46.4°F8.0°C 81% 6.9 mph SW11.1 kmh SW 9.2 mph14.8 kmh 29.50 in999.0 mb - 0.00 in0.0 mm 0.06 in1.5 mm
09:00 PM 52.1°F11.2°C 46.4°F8.0°C 81% 5.8 mph SW9.3 kmh SW 9.2 mph14.8 kmh 29.50 in999.0 mb - 0.01 in0.3 mm 0.07 in1.8 mm
09:05 PM 52.1°F11.2°C 46.4°F8.0°C 81% 4.6 mph SW7.4 kmh SW 11.5 mph18.5 kmh 29.50 in999.0 mb - 0.00 in0.0 mm 0.07 in1.8 mm
09:10 PM 52.1°F11.2°C 46.4°F8.0°C 81% 6.9 mph SW11.1 kmh SW 11.5 mph18.5 kmh 29.49 in998.6 mb - 0.00 in0.0 mm 0.07 in1.8 mm
09:15 PM 52.2°F11.2°C 46.2°F7.9°C 80% 5.8 mph SSW9.3 kmh SSW 11.5 mph18.5 kmh 29.48 in998.3 mb - 0.01 in0.3 mm 0.07 in1.8 mm
09:20 PM 52.2°F11.2°C 46.2°F7.9°C 80% 4.6 mph SSW7.4 kmh SSW 11.5 mph18.5 kmh 29.48 in998.3 mb - 0.01 in0.3 mm 0.08 in2.0 mm
09:25 PM 52.2°F11.2°C 46.5°F8.1°C 81% 4.6 mph SW7.4 kmh SW 6.9 mph11.1 kmh 29.48 in998.3 mb - 0.00 in0.0 mm 0.08 in2.0 mm
09:30 PM 52.2°F11.2°C 46.5°F8.1°C 81% 5.8 mph SW9.3 kmh SW 11.5 mph18.5 kmh 29.47 in998.0 mb - 0.01 in0.3 mm 0.09 in2.3 mm
09:35 PM 52.2°F11.2°C 46.5°F8.1°C 81% 5.8 mph SW9.3 kmh SW 10.4 mph16.7 kmh 29.47 in998.0 mb - 0.00 in0.0 mm 0.09 in2.3 mm
09:40 PM 52.3°F11.3°C 46.6°F8.1°C 81% 4.6 mph SW7.4 kmh SW 4.6 mph7.4 kmh 29.46 in997.6 mb - 0.00 in0.0 mm 0.09 in2.3 mm
09:45 PM 52.3°F11.3°C 46.6°F8.1°C 81% 3.5 mph SSW5.6 kmh SSW 6.9 mph11.1 kmh 29.46 in997.6 mb - 0.00 in0.0 mm 0.09 in2.3 mm
09:50 PM 52.4°F11.3°C 46.4°F8.0°C 80% 9.2 mph SW14.8 kmh SW 11.5 mph18.5 kmh 29.45 in997.3 mb - 0.00 in0.0 mm 0.09 in2.3 mm
09:55 PM 52.5°F11.4°C 46.5°F8.1°C 80% 6.9 mph SW11.1 kmh SW 10.4 mph16.7 kmh 29.45 in997.3 mb - 0.00 in0.0 mm 0.09 in2.3 mm
10:00 PM 52.6°F11.4°C 46.6°F8.1°C 80% 4.6 mph SW7.4 kmh SW 10.4 mph16.7 kmh 29.44 in997.0 mb - 0.00 in0.0 mm 0.09 in2.3 mm
10:05 PM 52.7°F11.5°C 46.7°F8.2°C 80% 5.8 mph SW9.3 kmh SW 9.2 mph14.8 kmh 29.44 in997.0 mb - 0.00 in0.0 mm 0.09 in2.3 mm
10:10 PM 52.8°F11.6°C 46.8°F8.2°C 80% 6.9 mph SW11.1 kmh SW 10.4 mph16.7 kmh 29.43 in996.6 mb - 0.00 in0.0 mm 0.09 in2.3 mm
10:15 PM 52.9°F11.6°C 46.9°F8.3°C 80% 4.6 mph SW7.4 kmh SW 4.6 mph7.4 kmh 29.43 in996.6 mb - 0.00 in0.0 mm 0.09 in2.3 mm
10:20 PM 52.9°F11.6°C 46.9°F8.3°C 80% 8.1 mph SW13.0 kmh SW 11.5 mph18.5 kmh 29.42 in996.3 mb - 0.00 in0.0 mm 0.09 in2.3 mm
10:25 PM 53.0°F11.7°C 47.0°F8.3°C 80% 4.6 mph SW7.4 kmh SW 9.2 mph14.8 kmh 29.42 in996.3 mb - 0.00 in0.0 mm 0.09 in2.3 mm
10:30 PM 53.0°F11.7°C 47.0°F8.3°C 80% 6.9 mph SW11.1 kmh SW 10.4 mph16.7 kmh 29.41 in995.9 mb - 0.00 in0.0 mm 0.09 in2.3 mm
10:35 PM 53.1°F11.7°C 47.1°F8.4°C 80% 11.5 mph SW18.5 kmh SW 19.6 mph31.5 kmh 29.41 in995.9 mb - 0.00 in0.0 mm 0.09 in2.3 mm
10:40 PM 53.3°F11.8°C 47.3°F8.5°C 80% 10.4 mph WSW16.7 kmh WSW 15.0 mph24.1 kmh 29.41 in995.9 mb - 0.00 in0.0 mm 0.09 in2.3 mm
10:45 PM 53.3°F11.8°C 47.3°F8.5°C 80% 10.4 mph SSW16.7 kmh SSW 12.7 mph20.4 kmh 29.40 in995.6 mb - 0.00 in0.0 mm 0.09 in2.3 mm
10:50 PM 53.4°F11.9°C 47.1°F8.4°C 79% 9.2 mph SW14.8 kmh SW 17.3 mph27.8 kmh 29.40 in995.6 mb - 0.00 in0.0 mm 0.09 in2.3 mm
10:55 PM 53.8°F12.1°C 47.4°F8.6°C 79% 13.8 mph SW22.2 kmh SW 21.9 mph35.2 kmh 29.39 in995.3 mb - 0.00 in0.0 mm 0.09 in2.3 mm
11:00 PM 54.2°F12.3°C 47.5°F8.6°C 78% 10.4 mph SW16.7 kmh SW 16.1 mph25.9 kmh 29.39 in995.3 mb - 0.00 in0.0 mm 0.09 in2.3 mm
11:05 PM 54.1°F12.3°C 47.4°F8.6°C 78% 13.8 mph SW22.2 kmh SW 26.5 mph42.6 kmh 29.38 in994.9 mb - 0.00 in0.0 mm 0.09 in2.3 mm
11:10 PM 54.2°F12.3°C 47.5°F8.6°C 78% 8.1 mph SW13.0 kmh SW 16.1 mph25.9 kmh 29.38 in994.9 mb - 0.00 in0.0 mm 0.09 in2.3 mm
11:15 PM 54.2°F12.3°C 47.5°F8.6°C 78% 8.1 mph SW13.0 kmh SW 13.8 mph22.2 kmh 29.37 in994.6 mb - 0.00 in0.0 mm 0.09 in2.3 mm
11:20 PM 54.2°F12.3°C 47.5°F8.6°C 78% 13.8 mph SW22.2 kmh SW 19.6 mph31.5 kmh 29.36 in994.2 mb - 0.00 in0.0 mm 0.09 in2.3 mm
11:25 PM 54.4°F12.4°C 47.7°F8.7°C 78% 8.1 mph SW13.0 kmh SW 20.7 mph33.3 kmh 29.36 in994.2 mb - 0.00 in0.0 mm 0.09 in2.3 mm
11:30 PM 54.3°F12.4°C 47.6°F8.7°C 78% 13.8 mph SW22.2 kmh SW 26.5 mph42.6 kmh 29.35 in993.9 mb - 0.00 in0.0 mm 0.09 in2.3 mm
11:35 PM 54.4°F12.4°C 47.7°F8.7°C 78% 10.4 mph SW16.7 kmh SW 20.7 mph33.3 kmh 29.34 in993.6 mb - 0.00 in0.0 mm 0.09 in2.3 mm
11:40 PM 54.5°F12.5°C 48.1°F8.9°C 79% 10.4 mph SW16.7 kmh SW 15.0 mph24.1 kmh 29.34 in993.6 mb - 0.00 in0.0 mm 0.09 in2.3 mm
11:45 PM 54.4°F12.4°C 48.0°F8.9°C 79% 10.4 mph SW16.7 kmh SW 12.7 mph20.4 kmh 29.33 in993.2 mb - 0.00 in0.0 mm 0.09 in2.3 mm
11:50 PM 54.3°F12.4°C 48.0°F8.9°C 79% 11.5 mph WSW18.5 kmh WSW 19.6 mph31.5 kmh 29.33 in993.2 mb - 0.02 in0.5 mm 0.11 in2.8 mm
11:55 PM 54.2°F12.3°C 47.8°F8.8°C 79% 12.7 mph SW20.4 kmh SW 19.6 mph31.5 kmh 29.32 in992.9 mb - 0.01 in0.3 mm 0.11 in2.8 mm